createdAt,value
2023-02-11T00:01:29.985Z,57.21
2023-02-11T00:03:56.994Z,57.23
2023-02-11T00:06:24.089Z,56.52
2023-02-11T00:08:50.678Z,56.71
2023-02-11T00:11:18.285Z,56.58
2023-02-11T00:13:45.364Z,56.47
2023-02-11T00:16:13.591Z,55.75
2023-02-11T00:18:40.168Z,55.68
2023-02-11T00:21:17.470Z,55.67
2023-02-11T00:23:44.677Z,55.82
2023-02-11T00:26:15.985Z,55.83
2023-02-11T00:28:43.262Z,56.33
2023-02-11T00:31:10.910Z,56.44
2023-02-11T00:33:37.611Z,56.73
2023-02-11T00:36:06.565Z,56.05
2023-02-11T00:38:33.300Z,55.85
2023-02-11T00:40:59.884Z,56.00
2023-02-11T00:43:26.429Z,55.89
2023-02-11T00:45:53.219Z,55.03
2023-02-11T00:48:19.969Z,55.65
2023-02-11T00:50:46.528Z,55.05
2023-02-11T00:53:13.065Z,55.93
2023-02-11T00:55:39.652Z,55.84
2023-02-11T00:58:06.181Z,55.96
2023-02-11T01:00:32.718Z,55.34
2023-02-11T01:02:59.253Z,56.49
2023-02-11T01:05:25.894Z,56.30
2023-02-11T01:07:52.529Z,54.97
2023-02-11T01:10:19.105Z,55.60
2023-02-11T01:12:45.657Z,54.29
2023-02-11T01:15:13.875Z,55.14
2023-02-11T01:17:40.474Z,55.62
2023-02-11T01:20:08.696Z,55.07
2023-02-11T01:22:39.510Z,55.56
2023-02-11T01:25:06.812Z,56.26
2023-02-11T01:27:35.627Z,56.88
2023-02-11T01:30:02.546Z,55.95
2023-02-11T01:32:29.118Z,55.71
2023-02-11T01:34:55.773Z,55.53
2023-02-11T01:37:22.307Z,55.86
2023-02-11T01:39:48.839Z,56.07
2023-02-11T01:42:16.710Z,55.56
2023-02-11T01:44:43.255Z,55.68
2023-02-11T01:47:10.226Z,56.22
2023-02-11T01:49:39.654Z,56.09
2023-02-11T01:52:09.282Z,56.58
2023-02-11T01:55:02.806Z,55.63
2023-02-11T01:57:31.241Z,55.98
2023-02-11T02:00:10.023Z,55.17
2023-02-11T02:02:42.630Z,55.23
2023-02-11T02:05:24.355Z,55.80
2023-02-11T02:08:09.589Z,56.11
2023-02-11T02:10:38.079Z,55.34
2023-02-11T02:13:04.539Z,55.80
2023-02-11T02:15:33.122Z,57.08
2023-02-11T02:18:02.687Z,57.13
2023-02-11T02:20:43.671Z,56.71
2023-02-11T02:23:18.118Z,56.75
2023-02-11T02:25:44.556Z,57.58
2023-02-11T02:28:20.232Z,57.43
2023-02-11T02:30:46.918Z,57.09
2023-02-11T02:33:32.238Z,57.16
2023-02-11T02:36:08.850Z,56.69
2023-02-11T02:38:45.942Z,56.52
2023-02-11T02:41:17.407Z,56.78
2023-02-11T02:43:46.109Z,55.86
2023-02-11T02:46:20.449Z,55.78
2023-02-11T02:48:49.385Z,56.17
2023-02-11T02:51:23.800Z,56.92
2023-02-11T02:54:08.277Z,57.08
2023-02-11T02:56:34.773Z,57.72
2023-02-11T02:59:13.762Z,58.23
2023-02-11T03:01:43.248Z,57.94
2023-02-11T03:04:12.873Z,57.17
2023-02-11T03:06:53.617Z,58.04
2023-02-11T03:09:30.898Z,58.00
2023-02-11T03:11:57.457Z,58.54
2023-02-11T03:14:26.799Z,58.51
2023-02-11T03:16:55.040Z,58.58
2023-02-11T03:19:24.154Z,58.31
2023-02-11T03:21:52.123Z,57.75
2023-02-11T03:24:26.180Z,57.73
2023-02-11T03:26:53.866Z,58.07
2023-02-11T03:29:34.933Z,57.89
2023-02-11T03:32:04.626Z,56.76
2023-02-11T03:34:42.326Z,57.75
2023-02-11T03:37:18.278Z,57.75
2023-02-11T03:39:48.919Z,58.25
2023-02-11T03:42:15.903Z,58.16
2023-02-11T03:44:46.417Z,58.28
2023-02-11T03:47:15.083Z,57.86
2023-02-11T03:49:43.270Z,57.59
2023-02-11T03:52:11.438Z,56.83
2023-02-11T03:54:39.143Z,56.93
2023-02-11T03:57:05.657Z,57.28
2023-02-11T03:59:32.158Z,57.08
2023-02-11T04:01:59.584Z,56.73
2023-02-11T04:04:26.111Z,56.30
2023-02-11T04:06:52.739Z,56.46
2023-02-11T04:09:19.366Z,57.51
2023-02-11T04:11:45.944Z,58.02
2023-02-11T04:14:12.563Z,57.93
2023-02-11T04:16:39.171Z,57.50
2023-02-11T04:19:05.988Z,57.56
2023-02-11T04:21:32.565Z,57.19
2023-02-11T04:23:59.112Z,57.97
2023-02-11T04:26:25.594Z,57.56
2023-02-11T04:28:52.128Z,57.69
2023-02-11T04:31:18.954Z,58.05
2023-02-11T04:33:45.525Z,57.76
2023-02-11T04:36:12.940Z,58.30
2023-02-11T04:38:39.568Z,58.35
2023-02-11T04:41:06.056Z,58.37
2023-02-11T04:43:32.544Z,58.18
2023-02-11T04:45:59.154Z,58.21
2023-02-11T04:48:25.885Z,58.36
2023-02-11T04:50:52.410Z,58.90
2023-02-11T04:53:18.963Z,57.95
2023-02-11T04:55:48.489Z,58.72
2023-02-11T04:58:15.222Z,58.72
2023-02-11T05:00:41.789Z,58.86
2023-02-11T05:03:08.298Z,60.56
2023-02-11T05:05:34.822Z,60.80
2023-02-11T05:08:01.376Z,61.40
2023-02-11T05:10:28.630Z,61.53
2023-02-11T05:12:56.112Z,61.04
2023-02-11T05:15:22.668Z,61.84
2023-02-11T05:17:49.267Z,62.00
2023-02-11T05:20:15.851Z,62.11
2023-02-11T05:22:42.414Z,62.10
2023-02-11T05:25:08.940Z,62.28
2023-02-11T05:27:35.424Z,62.14
2023-02-11T05:30:02.047Z,62.01
2023-02-11T05:32:28.631Z,61.07
2023-02-11T05:34:55.184Z,61.96
2023-02-11T05:37:21.766Z,61.35
2023-02-11T05:39:48.338Z,61.44
2023-02-11T05:42:14.973Z,61.14
2023-02-11T05:44:42.227Z,60.70
2023-02-11T05:47:09.064Z,60.33
2023-02-11T05:49:35.730Z,60.59
2023-02-11T05:52:02.243Z,60.54
2023-02-11T05:54:28.795Z,59.80
2023-02-11T05:56:55.273Z,59.56
2023-02-11T05:59:21.966Z,59.30
2023-02-11T06:01:48.517Z,58.55
2023-02-11T06:04:15.085Z,58.43
2023-02-11T06:06:41.677Z,58.49
2023-02-11T06:09:09.111Z,58.66
2023-02-11T06:11:35.696Z,57.63
2023-02-11T06:14:02.356Z,57.59
2023-02-11T06:16:29.089Z,57.74
2023-02-11T06:18:55.734Z,58.24
2023-02-11T06:21:23.882Z,58.82
2023-02-11T06:23:51.570Z,58.92
2023-02-11T06:26:20.176Z,60.05
2023-02-11T06:28:46.972Z,60.44
2023-02-11T06:31:13.666Z,60.36
2023-02-11T06:33:40.455Z,60.37
2023-02-11T06:36:18.034Z,60.05
2023-02-11T06:38:45.153Z,59.18
2023-02-11T06:41:12.541Z,59.56
2023-02-11T06:43:39.501Z,60.25
2023-02-11T06:46:06.429Z,60.24
2023-02-11T06:48:33.106Z,60.76
2023-02-11T06:51:04.757Z,60.03
2023-02-11T06:53:32.079Z,60.32
2023-02-11T06:56:02.528Z,60.42
2023-02-11T06:58:29.349Z,60.26
2023-02-11T07:00:55.909Z,60.73
2023-02-11T07:03:22.446Z,60.68
2023-02-11T07:05:49.313Z,60.17
2023-02-11T07:08:16.028Z,60.07
2023-02-11T07:10:42.864Z,60.74
2023-02-11T07:13:09.353Z,59.69
2023-02-11T07:15:37.455Z,59.41
2023-02-11T07:18:04.214Z,59.14
2023-02-11T07:20:30.795Z,59.48
2023-02-11T07:22:57.433Z,58.64
2023-02-11T07:25:23.943Z,58.92
2023-02-11T07:27:51.011Z,58.62
2023-02-11T07:30:17.723Z,58.46
2023-02-11T07:32:44.317Z,58.41
2023-02-11T07:35:10.858Z,58.05
2023-02-11T07:37:37.492Z,57.84
2023-02-11T07:40:04.238Z,58.09
2023-02-11T07:42:30.764Z,57.20
2023-02-11T07:44:57.338Z,57.16
2023-02-11T07:47:23.873Z,57.05
2023-02-11T07:49:50.469Z,57.82
2023-02-11T07:52:17.045Z,58.12
2023-02-11T07:54:43.538Z,58.59
2023-02-11T07:57:10.052Z,58.09
2023-02-11T07:59:36.670Z,57.75
2023-02-11T08:02:03.358Z,57.61
2023-02-11T08:04:29.951Z,57.31
2023-02-11T08:06:59.015Z,57.19
2023-02-11T08:09:25.712Z,56.97
2023-02-11T08:11:52.209Z,57.54
2023-02-11T08:14:18.792Z,57.19
2023-02-11T08:16:45.361Z,56.35
2023-02-11T08:19:13.996Z,56.39
2023-02-11T08:21:40.721Z,55.02
2023-02-11T08:24:09.111Z,55.33
2023-02-11T08:26:35.800Z,54.21
2023-02-11T08:29:05.486Z,54.59
2023-02-11T08:31:36.475Z,53.72
2023-02-11T08:34:03.046Z,53.59
2023-02-11T08:36:32.736Z,54.20
2023-02-11T08:39:15.913Z,53.80
2023-02-11T08:41:43.482Z,54.60
2023-02-11T08:44:10.029Z,54.35
2023-02-11T08:46:36.643Z,54.13
2023-02-11T08:49:03.333Z,53.17
2023-02-11T08:51:32.956Z,53.04
2023-02-11T08:54:00.463Z,53.82
2023-02-11T08:56:27.337Z,54.35
2023-02-11T08:58:54.301Z,53.53
2023-02-11T09:01:23.170Z,53.59
2023-02-11T09:03:50.114Z,52.86
2023-02-11T09:06:18.619Z,53.70
2023-02-11T09:08:46.517Z,54.15
2023-02-11T09:11:13.627Z,53.68
2023-02-11T09:13:40.643Z,53.48
2023-02-11T09:16:07.720Z,53.93
2023-02-11T09:18:34.819Z,52.82
2023-02-11T09:21:06.423Z,52.04
2023-02-11T09:23:34.547Z,52.24
2023-02-11T09:26:21.533Z,52.35
2023-02-11T09:28:48.425Z,51.91
2023-02-11T09:31:16.437Z,52.54
2023-02-11T09:33:47.872Z,51.49
2023-02-11T09:36:15.875Z,50.40
2023-02-11T09:38:43.106Z,49.80
2023-02-11T09:41:29.917Z,49.30
2023-02-11T09:43:58.049Z,47.77
2023-02-11T09:46:25.811Z,46.88
2023-02-11T09:48:54.101Z,46.42
2023-02-11T09:51:24.628Z,46.04
2023-02-11T09:53:53.738Z,45.31
2023-02-11T09:56:20.433Z,44.70
2023-02-11T09:58:47.461Z,43.78
2023-02-11T10:01:32.688Z,44.38
2023-02-11T10:04:08.672Z,44.32
2023-02-11T10:07:08.464Z,45.29
2023-02-11T10:09:54.219Z,44.51
2023-02-11T10:12:33.101Z,44.46
2023-02-11T10:15:18.075Z,43.59
2023-02-11T10:17:50.404Z,43.46
2023-02-11T10:20:17.276Z,43.63
2023-02-11T10:22:49.988Z,42.36
2023-02-11T10:25:19.697Z,42.31
2023-02-11T10:27:46.366Z,41.32
2023-02-11T10:30:21.098Z,41.70
2023-02-11T10:33:03.116Z,41.87
2023-02-11T10:35:29.843Z,41.17
2023-02-11T10:37:56.710Z,40.43
2023-02-11T10:40:24.853Z,39.86
2023-02-11T10:42:55.497Z,39.91
2023-02-11T10:45:25.280Z,39.27
2023-02-11T10:47:51.796Z,39.08
2023-02-11T10:50:23.190Z,38.59
2023-02-11T10:52:49.729Z,37.80
2023-02-11T10:55:27.884Z,36.96
2023-02-11T10:58:05.782Z,37.00
2023-02-11T11:00:40.072Z,36.20
2023-02-11T11:03:20.693Z,33.13
2023-02-11T11:05:58.153Z,31.28
2023-02-11T11:08:45.415Z,32.52
2023-02-11T11:11:19.583Z,32.13
2023-02-11T11:13:49.349Z,31.66
2023-02-11T11:16:17.639Z,31.16
2023-02-11T11:18:45.515Z,30.35
2023-02-11T11:21:12.036Z,28.80
2023-02-11T11:23:39.320Z,27.02
2023-02-11T11:26:07.743Z,25.50
2023-02-11T11:28:40.740Z,25.92
2023-02-11T11:31:27.568Z,26.39
2023-02-11T11:33:55.531Z,27.15
2023-02-11T11:36:23.924Z,26.09
2023-02-11T11:38:52.892Z,26.78
2023-02-11T11:41:21.544Z,27.04
2023-02-11T11:43:55.649Z,26.29
2023-02-11T11:46:27.402Z,27.13
2023-02-11T11:48:57.012Z,27.32
2023-02-11T11:51:24.240Z,26.93
2023-02-11T11:54:06.365Z,27.29
2023-02-11T11:56:34.599Z,28.72
2023-02-11T11:59:03.852Z,30.66
2023-02-11T12:01:42.591Z,30.71
2023-02-11T12:04:11.821Z,28.09
2023-02-11T12:06:41.548Z,26.56
2023-02-11T12:09:08.144Z,25.32
2023-02-11T12:11:53.466Z,25.01
2023-02-11T12:14:37.877Z,25.51
2023-02-11T12:17:23.291Z,27.18
2023-02-11T12:20:14.064Z,26.04
2023-02-11T12:22:54.280Z,24.88
2023-02-11T12:25:28.603Z,23.11
2023-02-11T12:28:01.291Z,23.25
2023-02-11T12:30:46.760Z,24.14
2023-02-11T12:33:25.951Z,23.19
2023-02-11T12:35:56.720Z,23.81
2023-02-11T12:38:26.253Z,25.28
2023-02-11T12:41:11.121Z,27.86
2023-02-11T12:43:39.515Z,29.55
2023-02-11T12:46:15.151Z,30.50
2023-02-11T12:49:00.632Z,32.04
2023-02-11T12:51:33.352Z,32.93
2023-02-11T12:54:17.968Z,34.11
2023-02-11T12:57:03.678Z,35.35
2023-02-11T12:59:50.114Z,35.85
2023-02-11T13:02:22.834Z,36.66
2023-02-11T13:04:51.924Z,37.63
2023-02-11T13:07:24.120Z,38.66
2023-02-11T13:10:02.136Z,39.37
2023-02-11T13:12:48.551Z,40.01
2023-02-11T13:15:16.040Z,40.87
2023-02-11T13:17:51.305Z,41.47
2023-02-11T13:20:21.045Z,41.19
2023-02-11T13:23:06.192Z,41.35
2023-02-11T13:25:52.863Z,41.87
2023-02-11T13:28:19.574Z,42.32
2023-02-11T13:30:51.819Z,42.69
2023-02-11T13:33:20.397Z,42.46
2023-02-11T13:35:51.174Z,42.34
2023-02-11T13:38:17.648Z,41.82
2023-02-11T13:40:44.437Z,41.83
2023-02-11T13:43:22.371Z,42.60
2023-02-11T13:45:50.054Z,42.32
2023-02-11T13:48:30.418Z,42.77
2023-02-11T13:51:05.332Z,43.09
2023-02-11T13:53:50.706Z,43.38
2023-02-11T13:56:30.854Z,43.86
2023-02-11T13:59:01.789Z,44.59
2023-02-11T14:01:37.942Z,44.72
2023-02-11T14:04:38.621Z,46.05
2023-02-11T14:07:50.156Z,46.69
2023-02-11T14:10:35.380Z,45.77
2023-02-11T14:13:06.383Z,46.17
2023-02-11T14:15:42.034Z,46.51
2023-02-11T14:18:41.267Z,46.64
2023-02-11T14:21:31.036Z,46.51
2023-02-11T14:24:10.131Z,47.13
2023-02-11T14:26:55.373Z,47.49
2023-02-11T14:29:40.404Z,47.37
2023-02-11T14:32:25.835Z,47.95
2023-02-11T14:34:58.656Z,48.11
2023-02-11T14:37:37.004Z,48.03
2023-02-11T14:40:19.159Z,48.69
2023-02-11T14:42:45.817Z,48.70
2023-02-11T14:45:18.505Z,48.84
2023-02-11T14:47:46.947Z,49.11
2023-02-11T14:50:16.248Z,49.35
2023-02-11T14:52:43.449Z,49.41
2023-02-11T14:55:22.832Z,49.10
2023-02-11T14:58:04.390Z,49.06
2023-02-11T15:00:30.996Z,48.83
2023-02-11T15:02:57.971Z,49.21
2023-02-11T15:05:26.172Z,49.51
2023-02-11T15:07:54.275Z,49.71
2023-02-11T15:10:41.008Z,49.76
2023-02-11T15:13:08.278Z,50.28
2023-02-11T15:15:37.851Z,49.93
2023-02-11T15:18:05.018Z,49.83
2023-02-11T15:20:32.956Z,50.49
2023-02-11T15:23:01.316Z,50.13
2023-02-11T15:25:28.341Z,50.47
2023-02-11T15:27:57.082Z,50.87
2023-02-11T15:30:23.780Z,50.30
2023-02-11T15:32:58.704Z,50.24
2023-02-11T15:35:36.809Z,50.25
2023-02-11T15:38:04.293Z,50.09
2023-02-11T15:40:35.906Z,50.07
2023-02-11T15:43:04.908Z,50.51
2023-02-11T15:45:43.895Z,49.84
2023-02-11T15:48:21.774Z,50.53
2023-02-11T15:50:53.781Z,50.87
2023-02-11T15:53:27.470Z,50.60
2023-02-11T15:55:59.560Z,50.48
2023-02-11T15:58:26.321Z,50.33
2023-02-11T16:00:59.796Z,50.92
2023-02-11T16:03:32.457Z,50.77
2023-02-11T16:06:18.065Z,51.37
2023-02-11T16:08:56.520Z,51.43
2023-02-11T16:11:49.450Z,52.30
2023-02-11T16:14:23.655Z,52.03
2023-02-11T16:16:51.884Z,53.05
2023-02-11T16:19:19.918Z,53.02
2023-02-11T16:21:46.909Z,53.44
2023-02-11T16:24:30.463Z,53.65
2023-02-11T16:26:58.987Z,53.81
2023-02-11T16:29:27.383Z,53.90
2023-02-11T16:31:55.395Z,53.49
2023-02-11T16:34:23.448Z,53.72
2023-02-11T16:36:50.764Z,53.50
2023-02-11T16:39:18.156Z,53.29
2023-02-11T16:41:44.925Z,53.75
2023-02-11T16:44:11.448Z,53.62
2023-02-11T16:46:38.266Z,53.14
2023-02-11T16:49:25.288Z,53.72
2023-02-11T16:51:53.376Z,53.66
2023-02-11T16:54:20.745Z,52.87
2023-02-11T16:56:47.422Z,53.28
2023-02-11T16:59:14.252Z,53.47
2023-02-11T17:01:42.218Z,53.04
2023-02-11T17:04:17.314Z,52.89
2023-02-11T17:06:43.894Z,53.40
2023-02-11T17:09:16.279Z,52.23
2023-02-11T17:11:42.877Z,53.06
2023-02-11T17:14:09.492Z,53.12
2023-02-11T17:16:36.113Z,52.57
2023-02-11T17:19:02.848Z,52.85
2023-02-11T17:21:31.470Z,51.94
2023-02-11T17:23:58.529Z,51.87
2023-02-11T17:26:25.221Z,52.77
2023-02-11T17:28:51.888Z,52.33
2023-02-11T17:31:18.816Z,52.52
2023-02-11T17:33:46.627Z,52.42
2023-02-11T17:36:13.282Z,53.19
2023-02-11T17:38:40.078Z,52.63
2023-02-11T17:41:06.783Z,52.62
2023-02-11T17:43:33.420Z,52.35
2023-02-11T17:45:59.953Z,52.41
2023-02-11T17:48:26.904Z,52.12
2023-02-11T17:50:54.766Z,52.38
2023-02-11T17:53:21.659Z,52.35
2023-02-11T17:55:48.480Z,52.18
2023-02-11T17:58:15.429Z,52.24
2023-02-11T18:00:43.383Z,52.20
2023-02-11T18:03:10.001Z,52.44
2023-02-11T18:05:37.177Z,53.38
2023-02-11T18:08:06.953Z,53.34
2023-02-11T18:10:34.154Z,53.50
2023-02-11T18:13:01.069Z,53.52
2023-02-11T18:15:27.809Z,54.00
2023-02-11T18:17:55.100Z,53.72
2023-02-11T18:20:21.778Z,53.53
2023-02-11T18:22:48.334Z,54.01
2023-02-11T18:25:15.332Z,53.82
2023-02-11T18:27:43.064Z,54.34
2023-02-11T18:30:14.687Z,53.34
2023-02-11T18:32:41.550Z,53.76
2023-02-11T18:35:14.866Z,53.98
2023-02-11T18:37:42.481Z,54.60
2023-02-11T18:40:10.304Z,54.14
2023-02-11T18:42:37.583Z,54.07
2023-02-11T18:45:07.087Z,53.76
2023-02-11T18:47:33.708Z,54.93
2023-02-11T18:50:00.326Z,55.14
2023-02-11T18:52:27.183Z,54.90
2023-02-11T18:54:58.148Z,54.30
2023-02-11T18:57:24.956Z,54.77
2023-02-11T18:59:51.650Z,54.69
2023-02-11T19:02:18.275Z,55.12
2023-02-11T19:04:45.134Z,55.34
2023-02-11T19:07:11.791Z,55.35
2023-02-11T19:09:38.635Z,54.77
2023-02-11T19:12:07.176Z,54.70
2023-02-11T19:14:34.373Z,54.37
2023-02-11T19:17:03.361Z,54.67
2023-02-11T19:19:31.086Z,54.25
2023-02-11T19:21:58.218Z,53.83
2023-02-11T19:24:25.470Z,54.60
2023-02-11T19:26:53.428Z,54.29
2023-02-11T19:29:20.086Z,54.09
2023-02-11T19:31:47.237Z,53.64
2023-02-11T19:34:15.381Z,54.27
2023-02-11T19:36:42.678Z,53.98
2023-02-11T19:39:09.431Z,53.92
2023-02-11T19:41:36.338Z,54.06
2023-02-11T19:44:02.926Z,54.34
2023-02-11T19:46:32.572Z,54.34
2023-02-11T19:49:00.754Z,54.46
2023-02-11T19:51:27.713Z,54.10
2023-02-11T19:53:55.010Z,54.18
2023-02-11T19:56:22.711Z,54.22
2023-02-11T19:58:49.371Z,54.25
2023-02-11T20:01:17.257Z,54.65
2023-02-11T20:03:52.018Z,54.30
2023-02-11T20:06:20.547Z,54.96
2023-02-11T20:08:47.196Z,54.82
2023-02-11T20:11:17.553Z,55.02
2023-02-11T20:13:44.377Z,55.01
2023-02-11T20:16:12.869Z,54.81
2023-02-11T20:18:42.663Z,55.34
2023-02-11T20:21:10.602Z,54.96
2023-02-11T20:23:39.078Z,55.55
2023-02-11T20:26:06.642Z,54.58
2023-02-11T20:28:36.892Z,54.54
2023-02-11T20:31:04.815Z,55.39
2023-02-11T20:33:31.591Z,54.84
2023-02-11T20:36:18.425Z,55.13
2023-02-11T20:38:45.696Z,55.11
2023-02-11T20:41:17.035Z,55.01
2023-02-11T20:43:45.960Z,54.81
2023-02-11T20:46:13.410Z,55.07
2023-02-11T20:48:40.213Z,54.90
2023-02-11T20:51:08.499Z,55.39
2023-02-11T20:53:35.973Z,55.35
2023-02-11T20:56:06.474Z,54.96
2023-02-11T20:58:33.713Z,55.23
2023-02-11T21:01:10.770Z,54.86
2023-02-11T21:03:37.491Z,54.66
2023-02-11T21:06:04.289Z,54.83
2023-02-11T21:08:31.068Z,54.59
2023-02-11T21:10:58.418Z,54.74
2023-02-11T21:13:25.041Z,54.72
2023-02-11T21:15:55.939Z,54.12
2023-02-11T21:18:23.913Z,54.45
2023-02-11T21:20:50.901Z,53.68
2023-02-11T21:23:17.673Z,54.09
2023-02-11T21:25:47.343Z,54.11
2023-02-11T21:28:14.289Z,54.91
2023-02-11T21:30:42.438Z,54.83
2023-02-11T21:33:09.275Z,55.29
2023-02-11T21:35:36.886Z,55.00
2023-02-11T21:38:04.216Z,55.35
2023-02-11T21:40:31.158Z,55.35
2023-02-11T21:42:57.840Z,55.41
2023-02-11T21:45:25.364Z,55.74
2023-02-11T21:47:52.153Z,55.83
2023-02-11T21:50:21.040Z,55.45
2023-02-11T21:52:47.723Z,55.24
2023-02-11T21:55:17.699Z,55.87
2023-02-11T21:57:46.533Z,55.18
2023-02-11T22:00:13.740Z,55.44
2023-02-11T22:02:40.452Z,55.56
2023-02-11T22:05:07.114Z,55.28
2023-02-11T22:07:35.485Z,55.88
2023-02-11T22:10:02.458Z,55.18
2023-02-11T22:12:29.196Z,55.46
2023-02-11T22:14:55.810Z,55.63
2023-02-11T22:17:23.416Z,55.94
2023-02-11T22:19:50.314Z,56.76
2023-02-11T22:22:18.377Z,56.30
2023-02-11T22:24:46.047Z,56.74
2023-02-11T22:27:13.232Z,57.09
2023-02-11T22:29:39.862Z,56.57
2023-02-11T22:32:06.852Z,56.68
2023-02-11T22:34:33.905Z,56.74
2023-02-11T22:37:01.135Z,56.52
2023-02-11T22:39:29.774Z,55.67
2023-02-11T22:41:56.767Z,55.62
2023-02-11T22:44:24.203Z,55.15
2023-02-11T22:46:51.105Z,54.99
2023-02-11T22:49:18.406Z,55.48
2023-02-11T22:51:45.477Z,55.44
2023-02-11T22:54:15.110Z,55.08
2023-02-11T22:56:41.957Z,55.16
2023-02-11T22:59:10.893Z,55.13
2023-02-11T23:01:37.537Z,55.31
2023-02-11T23:04:05.411Z,55.34
2023-02-11T23:06:32.391Z,54.97
2023-02-11T23:08:59.263Z,55.39
2023-02-11T23:11:29.975Z,55.02
2023-02-11T23:13:57.114Z,55.38
2023-02-11T23:16:24.874Z,55.35
2023-02-11T23:18:51.757Z,54.62
2023-02-11T23:21:19.548Z,54.62
2023-02-11T23:23:46.157Z,54.89
2023-02-11T23:26:14.081Z,54.56
2023-02-11T23:28:41.267Z,54.51
2023-02-11T23:31:18.396Z,55.21
2023-02-11T23:33:45.128Z,55.65
2023-02-11T23:36:11.839Z,55.77
2023-02-11T23:38:38.779Z,56.27
2023-02-11T23:41:05.954Z,56.45
2023-02-11T23:43:32.552Z,56.00
2023-02-11T23:45:59.304Z,55.45
2023-02-11T23:48:26.338Z,55.59
2023-02-11T23:50:52.942Z,55.23
2023-02-11T23:53:19.458Z,55.25
2023-02-11T23:55:46.526Z,55.16
2023-02-11T23:58:14.916Z,54.99
